sensor_id;sensor_type;location;lat;lon;timestamp;P1;durP1;ratioP1;P2;durP2;ratioP2
63034;SDS011;59750;53.356;-1.458;2022-07-06T00:01:47;3.60;;;1.90;;
63034;SDS011;59750;53.356;-1.458;2022-07-06T00:04:13;2.88;;;1.58;;
63034;SDS011;59750;53.356;-1.458;2022-07-06T00:06:39;4.88;;;1.92;;
63034;SDS011;59750;53.356;-1.458;2022-07-06T00:09:05;4.00;;;1.85;;
63034;SDS011;59750;53.356;-1.458;2022-07-06T00:11:32;7.53;;;1.83;;
63034;SDS011;59750;53.356;-1.458;2022-07-06T00:13:58;3.90;;;2.53;;
63034;SDS011;59750;53.356;-1.458;2022-07-06T00:16:24;3.55;;;1.45;;
63034;SDS011;59750;53.356;-1.458;2022-07-06T00:18:51;5.32;;;2.13;;
63034;SDS011;59750;53.356;-1.458;2022-07-06T00:21:17;2.40;;;1.80;;
63034;SDS011;59750;53.356;-1.458;2022-07-06T00:23:43;5.85;;;1.83;;
63034;SDS011;59750;53.356;-1.458;2022-07-06T00:26:09;4.32;;;2.95;;
63034;SDS011;59750;53.356;-1.458;2022-07-06T00:28:36;4.60;;;1.88;;
63034;SDS011;59750;53.356;-1.458;2022-07-06T00:31:01;5.18;;;2.45;;
63034;SDS011;59750;53.356;-1.458;2022-07-06T00:33:28;5.95;;;2.10;;
63034;SDS011;59750;53.356;-1.458;2022-07-06T00:35:54;3.17;;;1.70;;
63034;SDS011;59750;53.356;-1.458;2022-07-06T00:38:20;5.03;;;1.80;;
63034;SDS011;59750;53.356;-1.458;2022-07-06T00:40:46;4.25;;;1.80;;
63034;SDS011;59750;53.356;-1.458;2022-07-06T00:43:12;5.03;;;1.83;;
63034;SDS011;59750;53.356;-1.458;2022-07-06T00:45:42;3.45;;;1.48;;
63034;SDS011;59750;53.356;-1.458;2022-07-06T00:48:09;3.45;;;1.85;;
63034;SDS011;59750;53.356;-1.458;2022-07-06T00:50:34;5.85;;;2.08;;
63034;SDS011;59750;53.356;-1.458;2022-07-06T00:53:03;4.57;;;2.08;;
63034;SDS011;59750;53.356;-1.458;2022-07-06T00:55:32;5.00;;;1.60;;
63034;SDS011;59750;53.356;-1.458;2022-07-06T00:58:01;3.55;;;2.53;;
63034;SDS011;59750;53.356;-1.458;2022-07-06T01:00:28;3.25;;;1.67;;
63034;SDS011;59750;53.356;-1.458;2022-07-06T01:02:56;5.63;;;2.20;;
63034;SDS011;59750;53.356;-1.458;2022-07-06T01:05:22;5.30;;;1.73;;
63034;SDS011;59750;53.356;-1.458;2022-07-06T01:07:49;3.10;;;1.98;;
63034;SDS011;59750;53.356;-1.458;2022-07-06T01:10:17;3.03;;;1.60;;
63034;SDS011;59750;53.356;-1.458;2022-07-06T01:12:45;2.67;;;1.92;;
63034;SDS011;59750;53.356;-1.458;2022-07-06T01:15:13;4.18;;;2.33;;
63034;SDS011;59750;53.356;-1.458;2022-07-06T01:17:43;2.40;;;1.40;;
63034;SDS011;59750;53.356;-1.458;2022-07-06T01:22:43;3.80;;;1.77;;
63034;SDS011;59750;53.356;-1.458;2022-07-06T01:25:10;4.47;;;1.50;;
63034;SDS011;59750;53.356;-1.458;2022-07-06T01:27:38;3.40;;;1.85;;
63034;SDS011;59750;53.356;-1.458;2022-07-06T01:30:07;2.17;;;1.58;;
63034;SDS011;59750;53.356;-1.458;2022-07-06T01:32:36;2.80;;;1.58;;
63034;SDS011;59750;53.356;-1.458;2022-07-06T01:35:05;2.15;;;1.50;;
63034;SDS011;59750;53.356;-1.458;2022-07-06T01:37:32;3.40;;;1.60;;
63034;SDS011;59750;53.356;-1.458;2022-07-06T01:39:59;1.98;;;1.58;;
63034;SDS011;59750;53.356;-1.458;2022-07-06T01:42:26;2.17;;;1.40;;
63034;SDS011;59750;53.356;-1.458;2022-07-06T01:44:53;2.63;;;1.70;;
63034;SDS011;59750;53.356;-1.458;2022-07-06T01:47:19;1.90;;;1.48;;
63034;SDS011;59750;53.356;-1.458;2022-07-06T01:49:46;2.38;;;1.42;;
63034;SDS011;59750;53.356;-1.458;2022-07-06T01:52:12;2.20;;;1.35;;
63034;SDS011;59750;53.356;-1.458;2022-07-06T01:54:38;2.10;;;1.42;;
63034;SDS011;59750;53.356;-1.458;2022-07-06T01:57:05;2.38;;;1.40;;
63034;SDS011;59750;53.356;-1.458;2022-07-06T01:59:31;4.78;;;1.80;;
63034;SDS011;59750;53.356;-1.458;2022-07-06T02:01:56;2.90;;;1.50;;
63034;SDS011;59750;53.356;-1.458;2022-07-06T02:04:22;4.20;;;2.00;;
63034;SDS011;59750;53.356;-1.458;2022-07-06T02:06:48;1.40;;;1.08;;
63034;SDS011;59750;53.356;-1.458;2022-07-06T02:09:14;1.20;;;1.10;;
63034;SDS011;59750;53.356;-1.458;2022-07-06T02:11:42;1.83;;;1.20;;
63034;SDS011;59750;53.356;-1.458;2022-07-06T02:14:08;3.67;;;1.60;;
63034;SDS011;59750;53.356;-1.458;2022-07-06T02:16:34;2.38;;;1.42;;
63034;SDS011;59750;53.356;-1.458;2022-07-06T02:19:00;2.42;;;1.30;;
63034;SDS011;59750;53.356;-1.458;2022-07-06T02:21:26;1.55;;;1.10;;
63034;SDS011;59750;53.356;-1.458;2022-07-06T02:23:52;1.60;;;0.82;;
63034;SDS011;59750;53.356;-1.458;2022-07-06T02:26:18;1.55;;;1.00;;
63034;SDS011;59750;53.356;-1.458;2022-07-06T02:28:44;2.70;;;1.13;;
63034;SDS011;59750;53.356;-1.458;2022-07-06T02:31:13;1.38;;;0.75;;
63034;SDS011;59750;53.356;-1.458;2022-07-06T02:33:40;2.67;;;0.80;;
63034;SDS011;59750;53.356;-1.458;2022-07-06T02:36:06;0.75;;;0.60;;
63034;SDS011;59750;53.356;-1.458;2022-07-06T02:38:32;1.08;;;0.98;;
63034;SDS011;59750;53.356;-1.458;2022-07-06T02:40:58;2.00;;;0.90;;
63034;SDS011;59750;53.356;-1.458;2022-07-06T02:43:24;2.42;;;1.20;;
63034;SDS011;59750;53.356;-1.458;2022-07-06T02:45:49;1.10;;;1.00;;
63034;SDS011;59750;53.356;-1.458;2022-07-06T02:48:15;0.95;;;0.82;;
63034;SDS011;59750;53.356;-1.458;2022-07-06T02:50:41;0.85;;;0.80;;
63034;SDS011;59750;53.356;-1.458;2022-07-06T02:53:07;1.20;;;0.90;;
63034;SDS011;59750;53.356;-1.458;2022-07-06T02:55:33;0.90;;;0.70;;
63034;SDS011;59750;53.356;-1.458;2022-07-06T02:57:59;1.00;;;0.70;;
63034;SDS011;59750;53.356;-1.458;2022-07-06T03:00:25;2.15;;;0.80;;
63034;SDS011;59750;53.356;-1.458;2022-07-06T03:02:52;2.22;;;0.70;;
63034;SDS011;59750;53.356;-1.458;2022-07-06T03:05:18;1.42;;;0.70;;
63034;SDS011;59750;53.356;-1.458;2022-07-06T03:07:44;1.67;;;0.80;;
63034;SDS011;59750;53.356;-1.458;2022-07-06T03:10:10;1.08;;;0.70;;
63034;SDS011;59750;53.356;-1.458;2022-07-06T03:12:36;1.77;;;1.20;;
63034;SDS011;59750;53.356;-1.458;2022-07-06T03:15:02;1.42;;;1.20;;
63034;SDS011;59750;53.356;-1.458;2022-07-06T03:17:29;1.70;;;1.58;;
63034;SDS011;59750;53.356;-1.458;2022-07-06T03:19:55;3.42;;;1.70;;
63034;SDS011;59750;53.356;-1.458;2022-07-06T03:22:20;2.42;;;1.60;;
63034;SDS011;59750;53.356;-1.458;2022-07-06T03:24:46;2.47;;;1.83;;
63034;SDS011;59750;53.356;-1.458;2022-07-06T03:27:12;2.95;;;1.75;;
63034;SDS011;59750;53.356;-1.458;2022-07-06T03:29:38;2.10;;;1.90;;
63034;SDS011;59750;53.356;-1.458;2022-07-06T03:32:04;3.15;;;1.98;;
63034;SDS011;59750;53.356;-1.458;2022-07-06T03:34:31;2.45;;;1.90;;
63034;SDS011;59750;53.356;-1.458;2022-07-06T03:36:56;2.65;;;1.67;;
63034;SDS011;59750;53.356;-1.458;2022-07-06T03:39:22;2.60;;;1.70;;
63034;SDS011;59750;53.356;-1.458;2022-07-06T03:41:49;2.63;;;1.77;;
63034;SDS011;59750;53.356;-1.458;2022-07-06T03:44:14;2.17;;;1.80;;
63034;SDS011;59750;53.356;-1.458;2022-07-06T03:46:40;2.10;;;1.70;;
63034;SDS011;59750;53.356;-1.458;2022-07-06T03:49:06;4.35;;;2.28;;
63034;SDS011;59750;53.356;-1.458;2022-07-06T03:51:32;3.40;;;1.90;;
63034;SDS011;59750;53.356;-1.458;2022-07-06T03:53:57;2.13;;;1.92;;
63034;SDS011;59750;53.356;-1.458;2022-07-06T03:56:24;2.88;;;2.28;;
63034;SDS011;59750;53.356;-1.458;2022-07-06T03:58:58;2.25;;;2.05;;
63034;SDS011;59750;53.356;-1.458;2022-07-06T04:01:26;3.42;;;2.53;;
63034;SDS011;59750;53.356;-1.458;2022-07-06T04:03:52;4.70;;;3.00;;
63034;SDS011;59750;53.356;-1.458;2022-07-06T04:06:24;2.15;;;1.95;;
63034;SDS011;59750;53.356;-1.458;2022-07-06T04:09:00;4.55;;;3.38;;
63034;SDS011;59750;53.356;-1.458;2022-07-06T04:11:33;3.90;;;3.22;;
63034;SDS011;59750;53.356;-1.458;2022-07-06T04:13:59;4.03;;;3.33;;
63034;SDS011;59750;53.356;-1.458;2022-07-06T04:16:26;3.55;;;3.25;;
63034;SDS011;59750;53.356;-1.458;2022-07-06T04:18:52;5.25;;;3.90;;
63034;SDS011;59750;53.356;-1.458;2022-07-06T04:21:18;4.07;;;3.67;;
63034;SDS011;59750;53.356;-1.458;2022-07-06T04:23:44;4.45;;;4.00;;
63034;SDS011;59750;53.356;-1.458;2022-07-06T04:26:11;8.90;;;4.97;;
63034;SDS011;59750;53.356;-1.458;2022-07-06T04:28:38;5.10;;;4.57;;
63034;SDS011;59750;53.356;-1.458;2022-07-06T04:31:03;5.78;;;4.35;;
63034;SDS011;59750;53.356;-1.458;2022-07-06T04:33:29;5.43;;;4.40;;
63034;SDS011;59750;53.356;-1.458;2022-07-06T04:35:55;5.55;;;4.28;;
63034;SDS011;59750;53.356;-1.458;2022-07-06T04:38:21;6.22;;;4.28;;
63034;SDS011;59750;53.356;-1.458;2022-07-06T04:40:47;6.30;;;4.28;;
63034;SDS011;59750;53.356;-1.458;2022-07-06T04:43:13;4.72;;;4.30;;
63034;SDS011;59750;53.356;-1.458;2022-07-06T04:45:39;6.07;;;3.88;;
63034;SDS011;59750;53.356;-1.458;2022-07-06T04:48:05;6.32;;;4.43;;
63034;SDS011;59750;53.356;-1.458;2022-07-06T04:50:33;5.70;;;3.95;;
63034;SDS011;59750;53.356;-1.458;2022-07-06T04:52:59;5.00;;;3.58;;
63034;SDS011;59750;53.356;-1.458;2022-07-06T04:55:25;5.00;;;3.50;;
63034;SDS011;59750;53.356;-1.458;2022-07-06T04:57:51;3.80;;;3.42;;
63034;SDS011;59750;53.356;-1.458;2022-07-06T05:00:18;4.97;;;3.40;;
63034;SDS011;59750;53.356;-1.458;2022-07-06T05:02:44;4.18;;;3.30;;
63034;SDS011;59750;53.356;-1.458;2022-07-06T05:05:10;4.38;;;3.53;;
63034;SDS011;59750;53.356;-1.458;2022-07-06T05:07:35;5.88;;;4.10;;
63034;SDS011;59750;53.356;-1.458;2022-07-06T05:10:06;5.93;;;3.60;;
63034;SDS011;59750;53.356;-1.458;2022-07-06T05:12:33;4.57;;;3.22;;
63034;SDS011;59750;53.356;-1.458;2022-07-06T05:14:59;3.63;;;3.13;;
63034;SDS011;59750;53.356;-1.458;2022-07-06T05:17:25;6.03;;;3.72;;
63034;SDS011;59750;53.356;-1.458;2022-07-06T05:19:51;3.85;;;3.13;;
63034;SDS011;59750;53.356;-1.458;2022-07-06T05:22:18;4.93;;;3.38;;
63034;SDS011;59750;53.356;-1.458;2022-07-06T05:24:44;4.18;;;2.85;;
63034;SDS011;59750;53.356;-1.458;2022-07-06T05:27:10;4.50;;;3.55;;
63034;SDS011;59750;53.356;-1.458;2022-07-06T05:29:36;4.78;;;3.10;;
63034;SDS011;59750;53.356;-1.458;2022-07-06T05:32:02;7.47;;;2.97;;
63034;SDS011;59750;53.356;-1.458;2022-07-06T05:34:28;4.28;;;2.80;;
63034;SDS011;59750;53.356;-1.458;2022-07-06T05:36:54;2.75;;;2.50;;
63034;SDS011;59750;53.356;-1.458;2022-07-06T05:39:20;3.85;;;3.03;;
63034;SDS011;59750;53.356;-1.458;2022-07-06T05:41:48;3.63;;;2.20;;
63034;SDS011;59750;53.356;-1.458;2022-07-06T05:44:14;4.47;;;2.78;;
63034;SDS011;59750;53.356;-1.458;2022-07-06T05:46:40;4.07;;;2.22;;
63034;SDS011;59750;53.356;-1.458;2022-07-06T05:49:07;3.58;;;2.63;;
63034;SDS011;59750;53.356;-1.458;2022-07-06T05:51:51;2.40;;;2.10;;
63034;SDS011;59750;53.356;-1.458;2022-07-06T05:54:17;2.85;;;2.45;;
63034;SDS011;59750;53.356;-1.458;2022-07-06T05:56:43;3.33;;;2.40;;
63034;SDS011;59750;53.356;-1.458;2022-07-06T05:59:09;3.28;;;2.28;;
63034;SDS011;59750;53.356;-1.458;2022-07-06T06:01:35;3.03;;;2.40;;
63034;SDS011;59750;53.356;-1.458;2022-07-06T06:04:01;4.95;;;3.08;;
63034;SDS011;59750;53.356;-1.458;2022-07-06T06:06:27;4.82;;;2.60;;
63034;SDS011;59750;53.356;-1.458;2022-07-06T06:08:53;5.85;;;3.20;;
63034;SDS011;59750;53.356;-1.458;2022-07-06T06:11:19;5.93;;;2.30;;
63034;SDS011;59750;53.356;-1.458;2022-07-06T06:13:45;4.47;;;1.98;;
63034;SDS011;59750;53.356;-1.458;2022-07-06T06:16:11;2.05;;;1.70;;
63034;SDS011;59750;53.356;-1.458;2022-07-06T06:18:37;2.85;;;1.50;;
63034;SDS011;59750;53.356;-1.458;2022-07-06T06:21:03;3.78;;;1.23;;
63034;SDS011;59750;53.356;-1.458;2022-07-06T06:23:30;1.45;;;1.02;;
63034;SDS011;59750;53.356;-1.458;2022-07-06T06:25:56;2.97;;;1.40;;
63034;SDS011;59750;53.356;-1.458;2022-07-06T06:28:22;1.13;;;1.02;;
63034;SDS011;59750;53.356;-1.458;2022-07-06T06:30:48;2.60;;;0.95;;
63034;SDS011;59750;53.356;-1.458;2022-07-06T06:33:15;3.03;;;1.00;;
63034;SDS011;59750;53.356;-1.458;2022-07-06T06:35:44;1.48;;;1.10;;
63034;SDS011;59750;53.356;-1.458;2022-07-06T06:38:12;3.00;;;1.25;;
63034;SDS011;59750;53.356;-1.458;2022-07-06T06:40:39;3.78;;;1.20;;
63034;SDS011;59750;53.356;-1.458;2022-07-06T06:43:05;1.48;;;1.00;;
63034;SDS011;59750;53.356;-1.458;2022-07-06T06:45:32;2.50;;;1.10;;
63034;SDS011;59750;53.356;-1.458;2022-07-06T06:47:58;1.40;;;0.90;;
63034;SDS011;59750;53.356;-1.458;2022-07-06T06:50:24;2.03;;;1.00;;
63034;SDS011;59750;53.356;-1.458;2022-07-06T06:52:50;2.10;;;1.30;;
63034;SDS011;59750;53.356;-1.458;2022-07-06T06:55:17;1.58;;;1.30;;
63034;SDS011;59750;53.356;-1.458;2022-07-06T06:57:44;2.58;;;1.30;;
63034;SDS011;59750;53.356;-1.458;2022-07-06T07:00:12;3.03;;;1.27;;
63034;SDS011;59750;53.356;-1.458;2022-07-06T07:02:38;3.60;;;1.38;;
63034;SDS011;59750;53.356;-1.458;2022-07-06T07:05:04;4.53;;;1.60;;
63034;SDS011;59750;53.356;-1.458;2022-07-06T07:07:31;3.85;;;1.75;;
63034;SDS011;59750;53.356;-1.458;2022-07-06T07:09:58;5.20;;;1.70;;
63034;SDS011;59750;53.356;-1.458;2022-07-06T07:12:26;3.00;;;1.40;;
63034;SDS011;59750;53.356;-1.458;2022-07-06T07:14:52;3.60;;;1.70;;
63034;SDS011;59750;53.356;-1.458;2022-07-06T07:17:19;4.55;;;1.58;;
63034;SDS011;59750;53.356;-1.458;2022-07-06T07:19:46;3.22;;;1.67;;
63034;SDS011;59750;53.356;-1.458;2022-07-06T07:22:12;4.22;;;1.80;;
63034;SDS011;59750;53.356;-1.458;2022-07-06T07:24:39;2.75;;;1.45;;
63034;SDS011;59750;53.356;-1.458;2022-07-06T07:27:05;2.50;;;1.70;;
63034;SDS011;59750;53.356;-1.458;2022-07-06T07:29:32;3.45;;;2.05;;
63034;SDS011;59750;53.356;-1.458;2022-07-06T07:31:58;3.45;;;1.92;;
63034;SDS011;59750;53.356;-1.458;2022-07-06T07:34:25;3.55;;;1.70;;
63034;SDS011;59750;53.356;-1.458;2022-07-06T07:36:52;3.15;;;1.90;;
63034;SDS011;59750;53.356;-1.458;2022-07-06T07:39:18;3.22;;;1.40;;
63034;SDS011;59750;53.356;-1.458;2022-07-06T07:41:44;4.63;;;2.28;;
63034;SDS011;59750;53.356;-1.458;2022-07-06T07:44:11;2.85;;;1.27;;
63034;SDS011;59750;53.356;-1.458;2022-07-06T07:46:38;1.83;;;1.20;;
63034;SDS011;59750;53.356;-1.458;2022-07-06T07:49:04;2.28;;;1.20;;
63034;SDS011;59750;53.356;-1.458;2022-07-06T07:51:31;1.95;;;1.10;;
63034;SDS011;59750;53.356;-1.458;2022-07-06T07:53:57;1.92;;;1.10;;
63034;SDS011;59750;53.356;-1.458;2022-07-06T07:56:23;1.65;;;0.98;;
63034;SDS011;59750;53.356;-1.458;2022-07-06T07:58:50;1.60;;;0.90;;
63034;SDS011;59750;53.356;-1.458;2022-07-06T08:01:18;1.60;;;1.10;;
63034;SDS011;59750;53.356;-1.458;2022-07-06T08:03:44;2.13;;;1.08;;
63034;SDS011;59750;53.356;-1.458;2022-07-06T08:06:10;1.42;;;1.10;;
63034;SDS011;59750;53.356;-1.458;2022-07-06T08:08:37;2.03;;;0.93;;
63034;SDS011;59750;53.356;-1.458;2022-07-06T08:11:04;1.00;;;0.90;;
63034;SDS011;59750;53.356;-1.458;2022-07-06T08:13:30;2.17;;;0.80;;
63034;SDS011;59750;53.356;-1.458;2022-07-06T08:15:56;1.10;;;0.80;;
63034;SDS011;59750;53.356;-1.458;2022-07-06T08:18:22;2.55;;;0.80;;
63034;SDS011;59750;53.356;-1.458;2022-07-06T08:20:49;0.82;;;0.55;;
63034;SDS011;59750;53.356;-1.458;2022-07-06T08:23:15;0.93;;;0.43;;
63034;SDS011;59750;53.356;-1.458;2022-07-06T08:25:41;0.80;;;0.50;;
63034;SDS011;59750;53.356;-1.458;2022-07-06T08:28:07;0.70;;;0.60;;
63034;SDS011;59750;53.356;-1.458;2022-07-06T08:30:33;1.27;;;0.60;;
63034;SDS011;59750;53.356;-1.458;2022-07-06T08:33:00;1.23;;;0.65;;
63034;SDS011;59750;53.356;-1.458;2022-07-06T08:35:27;1.75;;;0.60;;
63034;SDS011;59750;53.356;-1.458;2022-07-06T08:37:54;1.23;;;0.75;;
63034;SDS011;59750;53.356;-1.458;2022-07-06T08:40:20;0.90;;;0.60;;
63034;SDS011;59750;53.356;-1.458;2022-07-06T08:42:47;1.70;;;0.60;;
63034;SDS011;59750;53.356;-1.458;2022-07-06T08:45:13;0.80;;;0.60;;
63034;SDS011;59750;53.356;-1.458;2022-07-06T08:47:41;0.88;;;0.70;;
63034;SDS011;59750;53.356;-1.458;2022-07-06T08:50:09;2.05;;;0.95;;
63034;SDS011;59750;53.356;-1.458;2022-07-06T08:52:36;1.70;;;0.93;;
63034;SDS011;59750;53.356;-1.458;2022-07-06T08:55:04;0.85;;;0.80;;
63034;SDS011;59750;53.356;-1.458;2022-07-06T08:57:31;1.23;;;0.50;;
63034;SDS011;59750;53.356;-1.458;2022-07-06T08:59:59;1.90;;;0.60;;
63034;SDS011;59750;53.356;-1.458;2022-07-06T09:02:26;0.45;;;0.40;;
63034;SDS011;59750;53.356;-1.458;2022-07-06T09:04:54;2.33;;;0.40;;
63034;SDS011;59750;53.356;-1.458;2022-07-06T09:07:24;0.45;;;0.22;;
63034;SDS011;59750;53.356;-1.458;2022-07-06T09:09:54;1.88;;;0.52;;
63034;SDS011;59750;53.356;-1.458;2022-07-06T09:12:22;0.38;;;0.30;;
63034;SDS011;59750;53.356;-1.458;2022-07-06T09:14:49;0.60;;;0.50;;
63034;SDS011;59750;53.356;-1.458;2022-07-06T09:17:15;0.50;;;0.40;;
63034;SDS011;59750;53.356;-1.458;2022-07-06T09:19:41;0.70;;;0.60;;
63034;SDS011;59750;53.356;-1.458;2022-07-06T09:22:24;1.10;;;0.52;;
63034;SDS011;59750;53.356;-1.458;2022-07-06T09:27:43;0.95;;;0.40;;
63034;SDS011;59750;53.356;-1.458;2022-07-06T09:30:14;0.50;;;0.33;;
63034;SDS011;59750;53.356;-1.458;2022-07-06T09:32:42;0.50;;;0.47;;
63034;SDS011;59750;53.356;-1.458;2022-07-06T09:38:05;0.60;;;0.60;;
63034;SDS011;59750;53.356;-1.458;2022-07-06T09:40:34;0.90;;;0.73;;
63034;SDS011;59750;53.356;-1.458;2022-07-06T09:43:10;1.40;;;1.30;;
63034;SDS011;59750;53.356;-1.458;2022-07-06T09:45:41;1.40;;;1.20;;
63034;SDS011;59750;53.356;-1.458;2022-07-06T09:48:17;1.80;;;1.30;;
63034;SDS011;59750;53.356;-1.458;2022-07-06T09:50:48;2.63;;;1.27;;
63034;SDS011;59750;53.356;-1.458;2022-07-06T09:53:19;1.95;;;1.30;;
63034;SDS011;59750;53.356;-1.458;2022-07-06T09:55:48;1.25;;;1.08;;
63034;SDS011;59750;53.356;-1.458;2022-07-06T09:58:16;1.35;;;1.10;;
63034;SDS011;59750;53.356;-1.458;2022-07-06T10:00:43;1.42;;;1.20;;
63034;SDS011;59750;53.356;-1.458;2022-07-06T10:03:11;1.77;;;1.10;;
63034;SDS011;59750;53.356;-1.458;2022-07-06T10:05:40;1.38;;;1.02;;
63034;SDS011;59750;53.356;-1.458;2022-07-06T10:08:09;2.33;;;0.82;;
63034;SDS011;59750;53.356;-1.458;2022-07-06T10:10:36;1.13;;;0.85;;
63034;SDS011;59750;53.356;-1.458;2022-07-06T10:13:05;1.50;;;0.90;;
63034;SDS011;59750;53.356;-1.458;2022-07-06T10:15:33;0.93;;;0.60;;
63034;SDS011;59750;53.356;-1.458;2022-07-06T10:18:03;0.73;;;0.50;;
63034;SDS011;59750;53.356;-1.458;2022-07-06T10:20:32;0.70;;;0.57;;
63034;SDS011;59750;53.356;-1.458;2022-07-06T10:23:03;0.70;;;0.50;;
63034;SDS011;59750;53.356;-1.458;2022-07-06T10:25:32;0.80;;;0.57;;
63034;SDS011;59750;53.356;-1.458;2022-07-06T10:27:59;1.73;;;0.65;;
63034;SDS011;59750;53.356;-1.458;2022-07-06T10:30:27;0.95;;;0.60;;
63034;SDS011;59750;53.356;-1.458;2022-07-06T10:32:55;1.00;;;0.70;;
63034;SDS011;59750;53.356;-1.458;2022-07-06T10:35:24;1.17;;;0.52;;
63034;SDS011;59750;53.356;-1.458;2022-07-06T10:40:45;1.13;;;0.55;;
63034;SDS011;59750;53.356;-1.458;2022-07-06T10:43:31;1.23;;;0.70;;
63034;SDS011;59750;53.356;-1.458;2022-07-06T10:45:58;1.73;;;0.70;;
63034;SDS011;59750;53.356;-1.458;2022-07-06T10:48:32;1.40;;;0.55;;
63034;SDS011;59750;53.356;-1.458;2022-07-06T10:51:00;1.45;;;0.80;;
63034;SDS011;59750;53.356;-1.458;2022-07-06T10:53:31;1.25;;;1.15;;
63034;SDS011;59750;53.356;-1.458;2022-07-06T10:56:03;1.90;;;0.95;;
63034;SDS011;59750;53.356;-1.458;2022-07-06T11:01:19;1.70;;;0.75;;
63034;SDS011;59750;53.356;-1.458;2022-07-06T11:06:36;0.90;;;0.60;;
63034;SDS011;59750;53.356;-1.458;2022-07-06T11:09:05;2.15;;;0.70;;
63034;SDS011;59750;53.356;-1.458;2022-07-06T11:16:40;1.30;;;0.70;;
63034;SDS011;59750;53.356;-1.458;2022-07-06T11:19:26;2.47;;;1.30;;
63034;SDS011;59750;53.356;-1.458;2022-07-06T11:21:56;1.25;;;0.75;;
63034;SDS011;59750;53.356;-1.458;2022-07-06T11:24:27;4.82;;;4.25;;
63034;SDS011;59750;53.356;-1.458;2022-07-06T11:26:57;2.30;;;2.10;;
63034;SDS011;59750;53.356;-1.458;2022-07-06T11:29:26;1.50;;;1.40;;
63034;SDS011;59750;53.356;-1.458;2022-07-06T11:31:56;3.50;;;2.88;;
63034;SDS011;59750;53.356;-1.458;2022-07-06T11:34:29;3.25;;;1.60;;
63034;SDS011;59750;53.356;-1.458;2022-07-06T11:37:00;1.70;;;1.23;;
63034;SDS011;59750;53.356;-1.458;2022-07-06T11:39:29;2.22;;;1.50;;
63034;SDS011;59750;53.356;-1.458;2022-07-06T11:41:58;2.58;;;1.10;;
63034;SDS011;59750;53.356;-1.458;2022-07-06T11:44:26;1.98;;;0.82;;
63034;SDS011;59750;53.356;-1.458;2022-07-06T11:46:53;2.53;;;1.80;;
63034;SDS011;59750;53.356;-1.458;2022-07-06T11:49:23;1.75;;;1.35;;
63034;SDS011;59750;53.356;-1.458;2022-07-06T11:51:50;2.25;;;0.88;;
63034;SDS011;59750;53.356;-1.458;2022-07-06T11:54:18;1.65;;;0.82;;
63034;SDS011;59750;53.356;-1.458;2022-07-06T11:59:33;3.75;;;1.30;;
63034;SDS011;59750;53.356;-1.458;2022-07-06T12:02:03;1.80;;;1.08;;
63034;SDS011;59750;53.356;-1.458;2022-07-06T12:04:32;2.15;;;1.60;;
63034;SDS011;59750;53.356;-1.458;2022-07-06T12:07:00;2.30;;;0.98;;
63034;SDS011;59750;53.356;-1.458;2022-07-06T12:09:30;3.15;;;1.30;;
63034;SDS011;59750;53.356;-1.458;2022-07-06T12:11:59;3.63;;;1.95;;
63034;SDS011;59750;53.356;-1.458;2022-07-06T12:14:30;2.15;;;1.20;;
63034;SDS011;59750;53.356;-1.458;2022-07-06T12:17:05;3.47;;;1.50;;
63034;SDS011;59750;53.356;-1.458;2022-07-06T12:19:34;3.13;;;1.27;;
63034;SDS011;59750;53.356;-1.458;2022-07-06T12:22:02;4.55;;;1.23;;
63034;SDS011;59750;53.356;-1.458;2022-07-06T12:24:31;3.13;;;1.20;;
63034;SDS011;59750;53.356;-1.458;2022-07-06T12:29:46;3.88;;;1.30;;
63034;SDS011;59750;53.356;-1.458;2022-07-06T12:32:16;4.18;;;1.40;;
63034;SDS011;59750;53.356;-1.458;2022-07-06T12:35:02;3.67;;;1.45;;
63034;SDS011;59750;53.356;-1.458;2022-07-06T12:37:32;3.80;;;1.20;;
63034;SDS011;59750;53.356;-1.458;2022-07-06T12:39:58;2.95;;;1.40;;
63034;SDS011;59750;53.356;-1.458;2022-07-06T12:42:25;2.20;;;1.10;;
63034;SDS011;59750;53.356;-1.458;2022-07-06T12:44:52;2.08;;;0.80;;
63034;SDS011;59750;53.356;-1.458;2022-07-06T12:47:19;2.20;;;1.00;;
63034;SDS011;59750;53.356;-1.458;2022-07-06T12:50:03;2.05;;;1.02;;
63034;SDS011;59750;53.356;-1.458;2022-07-06T12:52:33;3.13;;;1.30;;
63034;SDS011;59750;53.356;-1.458;2022-07-06T12:55:00;5.20;;;1.42;;
63034;SDS011;59750;53.356;-1.458;2022-07-06T12:57:27;3.55;;;1.02;;
63034;SDS011;59750;53.356;-1.458;2022-07-06T13:00:10;20.00;;;2.08;;
63034;SDS011;59750;53.356;-1.458;2022-07-06T13:02:37;23.20;;;2.35;;
63034;SDS011;59750;53.356;-1.458;2022-07-06T13:05:07;2.65;;;1.20;;
63034;SDS011;59750;53.356;-1.458;2022-07-06T13:07:37;3.65;;;1.05;;
63034;SDS011;59750;53.356;-1.458;2022-07-06T13:10:10;3.83;;;1.00;;
63034;SDS011;59750;53.356;-1.458;2022-07-06T13:12:38;1.65;;;0.98;;
63034;SDS011;59750;53.356;-1.458;2022-07-06T13:15:06;3.00;;;1.00;;
63034;SDS011;59750;53.356;-1.458;2022-07-06T13:17:34;3.05;;;1.20;;
63034;SDS011;59750;53.356;-1.458;2022-07-06T13:20:04;1.77;;;0.93;;
63034;SDS011;59750;53.356;-1.458;2022-07-06T13:22:32;4.88;;;1.45;;
63034;SDS011;59750;53.356;-1.458;2022-07-06T13:25:00;3.30;;;1.17;;
63034;SDS011;59750;53.356;-1.458;2022-07-06T13:27:27;3.03;;;1.13;;
63034;SDS011;59750;53.356;-1.458;2022-07-06T13:29:53;1.95;;;0.98;;
63034;SDS011;59750;53.356;-1.458;2022-07-06T13:32:20;3.63;;;1.35;;
63034;SDS011;59750;53.356;-1.458;2022-07-06T13:34:47;1.95;;;0.82;;
63034;SDS011;59750;53.356;-1.458;2022-07-06T13:37:13;2.55;;;0.95;;
63034;SDS011;59750;53.356;-1.458;2022-07-06T13:39:40;8.38;;;1.02;;
63034;SDS011;59750;53.356;-1.458;2022-07-06T13:42:07;12.77;;;1.55;;
63034;SDS011;59750;53.356;-1.458;2022-07-06T13:44:35;1.42;;;0.90;;
63034;SDS011;59750;53.356;-1.458;2022-07-06T13:47:02;3.20;;;0.93;;
63034;SDS011;59750;53.356;-1.458;2022-07-06T13:49:29;3.22;;;1.60;;
63034;SDS011;59750;53.356;-1.458;2022-07-06T13:51:56;1.38;;;0.90;;
63034;SDS011;59750;53.356;-1.458;2022-07-06T13:54:30;2.53;;;0.80;;
63034;SDS011;59750;53.356;-1.458;2022-07-06T13:56:57;2.13;;;0.90;;
63034;SDS011;59750;53.356;-1.458;2022-07-06T13:59:25;1.48;;;0.98;;
63034;SDS011;59750;53.356;-1.458;2022-07-06T14:01:53;6.18;;;1.27;;
63034;SDS011;59750;53.356;-1.458;2022-07-06T14:04:19;16.30;;;2.13;;
63034;SDS011;59750;53.356;-1.458;2022-07-06T14:06:46;9.40;;;1.30;;
63034;SDS011;59750;53.356;-1.458;2022-07-06T14:09:12;1.90;;;0.70;;
63034;SDS011;59750;53.356;-1.458;2022-07-06T14:11:39;3.83;;;1.10;;
63034;SDS011;59750;53.356;-1.458;2022-07-06T14:14:06;2.38;;;0.80;;
63034;SDS011;59750;53.356;-1.458;2022-07-06T14:16:34;3.30;;;0.77;;
63034;SDS011;59750;53.356;-1.458;2022-07-06T14:19:01;2.00;;;0.95;;
63034;SDS011;59750;53.356;-1.458;2022-07-06T14:21:28;4.35;;;0.90;;
63034;SDS011;59750;53.356;-1.458;2022-07-06T14:23:55;2.38;;;0.90;;
63034;SDS011;59750;53.356;-1.458;2022-07-06T14:26:21;1.10;;;1.00;;
63034;SDS011;59750;53.356;-1.458;2022-07-06T14:28:48;2.08;;;1.13;;
63034;SDS011;59750;53.356;-1.458;2022-07-06T14:31:15;2.65;;;1.05;;
63034;SDS011;59750;53.356;-1.458;2022-07-06T14:33:43;2.97;;;1.27;;
63034;SDS011;59750;53.356;-1.458;2022-07-06T14:36:10;2.40;;;1.00;;
63034;SDS011;59750;53.356;-1.458;2022-07-06T14:38:37;2.53;;;1.10;;
63034;SDS011;59750;53.356;-1.458;2022-07-06T14:41:04;4.18;;;1.00;;
63034;SDS011;59750;53.356;-1.458;2022-07-06T14:43:30;2.78;;;1.30;;
63034;SDS011;59750;53.356;-1.458;2022-07-06T14:45:57;0.77;;;0.70;;
63034;SDS011;59750;53.356;-1.458;2022-07-06T14:48:23;3.08;;;0.68;;
63034;SDS011;59750;53.356;-1.458;2022-07-06T14:50:50;1.98;;;0.60;;
63034;SDS011;59750;53.356;-1.458;2022-07-06T14:53:16;1.13;;;0.60;;
63034;SDS011;59750;53.356;-1.458;2022-07-06T14:55:43;2.25;;;0.88;;
63034;SDS011;59750;53.356;-1.458;2022-07-06T14:58:10;2.72;;;0.90;;
63034;SDS011;59750;53.356;-1.458;2022-07-06T15:00:36;2.95;;;1.00;;
63034;SDS011;59750;53.356;-1.458;2022-07-06T15:03:03;2.25;;;0.80;;